Time;durP1;ratioP1;P1;durP2;ratioP2;P2;SDS_P1;SDS_P2;PMS_P1;PMS_P2;Temp;Humidity;BMP_temperature;BMP_pressure;BME280_temperature;BME280_humidity;BME280_pressure;Samples;Min_cycle;Max_cycle;Signal;HPM_P1;HPM_P2
2023/06/16 00:02:07;;;;;;;34.20;17.88;;;;;;;17.49;100.00;97114.81;10493602;27;20043;-50
2023/06/16 00:07:06;;;;;;;28.90;16.38;;;;;;;17.56;100.00;97111.03;10494572;27;20411;-50
2023/06/16 00:12:06;;;;;;;28.13;16.63;;;;;;;17.62;100.00;97108.19;10492658;27;20121;-51
2023/06/16 00:17:05;;;;;;;29.05;15.85;;;;;;;17.66;100.00;97096.66;10493762;27;20062;-51
2023/06/16 00:22:06;;;;;;;29.15;16.58;;;;;;;17.66;100.00;97099.28;10473648;27;20070;-50
2023/06/16 00:27:05;;;;;;;30.73;16.60;;;;;;;17.69;100.00;97099.16;10492369;27;20062;-48
2023/06/16 00:32:04;;;;;;;29.42;17.48;;;;;;;17.75;100.00;97096.31;10494430;27;20034;-50
2023/06/16 00:37:03;;;;;;;29.38;16.90;;;;;;;17.74;100.00;97084.06;10493018;27;20470;-49
2023/06/16 00:42:02;;;;;;;28.55;16.65;;;;;;;17.76;100.00;97086.66;10491384;27;20565;-50
2023/06/16 00:47:02;;;;;;;29.05;16.85;;;;;;;17.82;100.00;97090.81;10492818;27;20062;-49
2023/06/16 00:52:02;;;;;;;30.02;17.48;;;;;;;17.81;100.00;97076.00;10491089;27;20055;-50
2023/06/16 00:57:02;;;;;;;25.85;16.10;;;;;;;17.74;100.00;97086.69;10491669;27;20491;-50
2023/06/16 01:02:01;;;;;;;26.23;15.57;;;;;;;17.65;100.00;97073.09;10491241;27;20070;-51
2023/06/16 01:07:21;;;;;;;26.20;15.85;;;;;;;17.75;100.00;97075.31;10490523;27;20028;-48
2023/06/16 01:12:57;;;;;;;22.35;14.13;;;;;;;17.70;100.00;97073.75;10491643;28;20118;-48
2023/06/16 01:17:59;;;;;;;24.45;14.55;;;;;;;17.53;100.00;97070.03;10533671;27;20062;-49
2023/06/16 01:23:33;;;;;;;26.20;15.32;;;;;;;17.41;100.00;97074.94;10513731;27;20085;-51
2023/06/16 01:28:34;;;;;;;28.38;16.95;;;;;;;17.00;100.00;97012.69;10531737;27;20058;-49
2023/06/16 01:33:35;;;;;;;27.85;16.77;;;;;;;17.43;100.00;97063.47;10533037;27;20137;-52
2023/06/16 01:38:35;;;;;;;24.85;15.27;;;;;;;17.53;100.00;97063.94;10512799;27;20071;-51
2023/06/16 01:43:35;;;;;;;27.00;15.52;;;;;;;17.41;100.00;97044.31;10515901;27;20051;-49
2023/06/16 01:48:34;;;;;;;28.52;16.20;;;;;;;17.51;100.00;97042.16;10490051;27;20107;-48
2023/06/16 01:53:33;;;;;;;21.73;14.57;;;;;;;17.66;100.00;97049.44;10489679;27;20111;-51
2023/06/16 01:58:32;;;;;;;24.55;13.98;;;;;;;17.69;100.00;97054.53;10489643;27;20126;-48
2023/06/16 02:03:35;;;;;;;22.88;14.57;;;;;;;17.76;100.00;97061.28;10489348;27;20666;-48
2023/06/16 02:08:36;;;;;;;20.80;13.77;;;;;;;17.81;100.00;97047.97;10489703;27;20059;-50
2023/06/16 02:13:35;;;;;;;23.42;13.15;;;;;;;17.79;100.00;97055.06;10489591;27;20059;-51
2023/06/16 02:18:34;;;;;;;18.65;12.80;;;;;;;17.84;100.00;97053.09;10489055;27;20078;-51
2023/06/16 02:23:33;;;;;;;21.60;13.55;;;;;;;17.84;100.00;97057.50;10489520;27;20049;-49
2023/06/16 02:28:32;;;;;;;16.25;12.35;;;;;;;17.86;100.00;97051.25;10488602;27;20557;-49
2023/06/16 02:33:31;;;;;;;17.70;12.27;;;;;;;17.91;100.00;97048.44;10489627;27;20529;-51
2023/06/16 02:38:31;;;;;;;19.23;12.02;;;;;;;17.95;100.00;97052.66;10497676;27;20508;-49
2023/06/16 02:43:29;;;;;;;18.77;12.85;;;;;;;17.94;100.00;97043.06;10513645;27;20074;-50
2023/06/16 02:48:28;;;;;;;17.83;12.00;;;;;;;18.04;100.00;97046.19;10523123;27;20023;-50
2023/06/16 02:53:29;;;;;;;15.73;11.50;;;;;;;18.04;100.00;97044.41;10496715;27;20039;-48
2023/06/16 02:58:28;;;;;;;17.55;12.02;;;;;;;18.04;100.00;97044.41;10496131;27;20473;-51
2023/06/16 03:03:30;;;;;;;17.52;11.65;;;;;;;18.00;100.00;97041.97;10495853;27;20525;-50
2023/06/16 03:08:30;;;;;;;21.48;12.98;;;;;;;18.03;100.00;97036.56;10496061;27;20058;-51
2023/06/16 03:13:29;;;;;;;18.13;13.05;;;;;;;17.95;100.00;97003.63;10495984;27;20485;-51
2023/06/16 03:18:27;;;;;;;19.92;13.98;;;;;;;18.07;100.00;97018.00;10495389;27;20409;-49
2023/06/16 03:23:27;;;;;;;19.92;14.00;;;;;;;18.07;100.00;97025.88;10495693;27;20023;-50
2023/06/16 03:28:26;;;;;;;19.60;14.15;;;;;;;18.07;100.00;97031.13;10494775;27;20518;-50
2023/06/16 03:33:26;;;;;;;21.70;15.05;;;;;;;17.98;100.00;97003.47;10494976;27;20482;-51
2023/06/16 03:38:25;;;;;;;20.48;13.95;;;;;;;18.13;100.00;97027.41;10494769;27;20113;-51
2023/06/16 03:43:24;;;;;;;19.42;13.40;;;;;;;18.18;100.00;97023.66;10508994;27;20035;-48
2023/06/16 03:48:23;;;;;;;21.13;13.02;;;;;;;18.23;100.00;97018.19;10522221;27;20063;-50
2023/06/16 03:53:22;;;;;;;21.23;14.63;;;;;;;18.24;100.00;97009.38;10494156;28;20032;-52
2023/06/16 03:58:22;;;;;;;24.30;15.68;;;;;;;18.21;100.00;97004.28;10493980;27;20062;-50
2023/06/16 04:03:21;;;;;;;29.70;16.63;;;;;;;18.25;100.00;96999.75;10492631;27;20071;-49
2023/06/16 04:08:20;;;;;;;25.83;16.75;;;;;;;18.29;100.00;96996.94;10493082;27;20131;-49
2023/06/16 04:13:19;;;;;;;24.50;17.15;;;;;;;18.39;100.00;96995.59;10493604;27;20476;-49
2023/06/16 04:18:18;;;;;;;24.35;16.10;;;;;;;18.40;100.00;96983.31;10493047;27;20130;-52
2023/06/16 04:23:17;;;;;;;24.73;15.07;;;;;;;18.26;100.00;96972.56;10514579;27;20106;-49
2023/06/16 04:28:17;;;;;;;23.85;14.52;;;;;;;18.41;100.00;96985.03;10534610;27;20504;-51
2023/06/16 04:33:17;;;;;;;27.48;15.63;;;;;;;18.37;100.00;96975.56;10533850;27;20054;-51
2023/06/16 04:38:17;;;;;;;22.63;14.88;;;;;;;18.29;100.00;96964.53;10535372;27;20065;-49
2023/06/16 04:43:16;;;;;;;25.48;16.95;;;;;;;18.49;100.00;96988.16;10520781;27;20062;-52
2023/06/16 04:48:15;;;;;;;30.50;18.10;;;;;;;18.49;100.00;96988.16;10494263;27;20038;-53
2023/06/16 04:53:14;;;;;;;26.60;16.58;;;;;;;18.46;100.00;96985.66;10503143;27;20062;-50
2023/06/16 04:58:13;;;;;;;28.98;17.90;;;;;;;18.43;100.00;97003.31;10496218;27;20067;-49
2023/06/16 05:03:12;;;;;;;27.10;16.40;;;;;;;18.42;100.00;96997.22;10491569;27;20072;-50
2023/06/16 05:08:11;;;;;;;26.67;18.83;;;;;;;18.53;100.00;96991.50;10507987;27;20382;-51
2023/06/16 05:13:10;;;;;;;30.38;19.17;;;;;;;18.61;100.00;96995.47;10492621;27;20613;-50
2023/06/16 05:18:09;;;;;;;25.58;17.75;;;;;;;18.66;100.00;96987.38;10490266;27;20505;-52
2023/06/16 05:23:08;;;;;;;24.55;16.52;;;;;;;18.81;100.00;96977.97;10490832;27;20494;-52
2023/06/16 05:28:07;;;;;;;25.02;16.63;;;;;;;18.94;100.00;96984.34;10495509;27;20513;-52
2023/06/16 05:33:06;;;;;;;16.52;13.05;;;;;;;19.10;100.00;96983.63;10522088;27;20127;-51
2023/06/16 05:38:05;;;;;;;15.05;11.75;;;;;;;19.20;100.00;96988.38;10490933;28;20034;-49
2023/06/16 05:43:04;;;;;;;16.10;12.02;;;;;;;19.24;100.00;96986.47;10500500;27;20035;-49
2023/06/16 05:48:03;;;;;;;17.85;12.45;;;;;;;19.57;100.00;96993.66;10511642;27;20471;-49
2023/06/16 05:53:04;;;;;;;12.40;10.02;;;;;;;19.76;100.00;96989.19;10489911;27;20412;-51
2023/06/16 05:58:03;;;;;;;11.40;9.40;;;;;;;19.91;100.00;96986.69;10513487;27;20046;-49
2023/06/16 06:03:03;;;;;;;13.27;9.88;;;;;;;20.33;100.00;96998.59;10493370;27;20058;-50
2023/06/16 06:08:03;;;;;;;14.00;10.30;;;;;;;20.48;100.00;96992.56;10516125;27;20059;-52
2023/06/16 06:13:06;;;;;;;13.18;9.30;;;;;;;20.55;100.00;96988.66;10519814;27;20054;-50
2023/06/16 06:18:05;;;;;;;11.23;9.85;;;;;;;20.73;98.64;96989.47;10511447;27;20127;-51
2023/06/16 06:23:04;;;;;;;11.10;8.75;;;;;;;20.65;96.57;96989.03;10503547;27;20035;-50
2023/06/16 06:28:03;;;;;;;15.20;9.18;;;;;;;20.94;98.57;96992.72;10513026;27;20058;-49
2023/06/16 06:33:02;;;;;;;11.48;8.25;;;;;;;21.01;95.00;96951.88;10523433;27;20047;-51
2023/06/16 06:38:03;;;;;;;12.73;7.32;;;;;;;21.24;90.33;96994.59;10510852;27;20488;-52
2023/06/16 06:43:02;;;;;;;11.80;7.20;;;;;;;21.43;90.66;96983.84;10501169;27;20110;-49
2023/06/16 06:48:01;;;;;;;9.00;6.60;;;;;;;21.79;92.12;96985.34;10497784;27;20058;-53
2023/06/16 06:53:00;;;;;;;8.18;6.20;;;;;;;22.21;91.54;96981.97;10500679;27;20401;-52
2023/06/16 06:57:59;;;;;;;8.15;6.35;;;;;;;22.46;87.32;96973.41;10543113;27;20019;-51
2023/06/16 07:02:58;;;;;;;10.52;6.68;;;;;;;22.46;82.58;96948.72;10519530;27;20122;-50
2023/06/16 07:07:57;;;;;;;8.32;7.00;;;;;;;22.50;81.89;96968.75;10509226;27;20114;-50
2023/06/16 07:12:56;;;;;;;9.82;6.65;;;;;;;22.51;80.08;96981.03;10509264;27;20051;-52
2023/06/16 07:17:55;;;;;;;11.27;7.45;;;;;;;22.58;82.61;96977.91;10505282;27;20019;-50
2023/06/16 07:22:54;;;;;;;8.35;6.85;;;;;;;22.80;81.21;96969.50;10507934;27;20370;-49
2023/06/16 07:27:54;;;;;;;8.27;6.65;;;;;;;23.05;80.44;96967.97;10512631;27;20048;-47
2023/06/16 07:32:54;;;;;;;8.85;6.80;;;;;;;23.31;78.63;96970.75;10514005;27;20063;-49
2023/06/16 07:37:53;;;;;;;10.60;7.45;;;;;;;23.55;81.44;96973.59;10520871;27;20478;-53
2023/06/16 07:42:51;;;;;;;10.18;7.13;;;;;;;23.68;78.33;96969.22;10513020;27;21515;-52
2023/06/16 07:47:50;;;;;;;7.47;5.82;;;;;;;23.87;76.18;96967.97;10508851;27;20543;-52
2023/06/16 07:52:49;;;;;;;8.25;6.03;;;;;;;24.09;77.81;96968.19;10515214;27;20110;-51
2023/06/16 07:57:48;;;;;;;8.52;6.55;;;;;;;24.26;71.64;96960.00;10509043;27;20055;-51
2023/06/16 08:02:47;;;;;;;7.95;5.53;;;;;;;24.39;71.32;96952.00;10509592;27;20437;-51
2023/06/16 08:07:46;;;;;;;10.23;6.47;;;;;;;24.90;70.96;96957.28;10501960;27;20039;-48
2023/06/16 08:12:49;;;;;;;10.45;7.13;;;;;;;25.23;69.35;96945.19;10503622;27;20054;-49
2023/06/16 08:17:48;;;;;;;10.77;7.03;;;;;;;25.15;66.86;96962.63;10499370;27;20491;-47
2023/06/16 08:22:47;;;;;;;8.02;6.65;;;;;;;24.69;67.79;96935.75;10501980;27;20495;-49
2023/06/16 08:27:45;;;;;;;13.60;7.35;;;;;;;24.57;69.40;96968.47;10500717;27;20023;-49
2023/06/16 08:32:44;;;;;;;10.90;7.35;;;;;;;24.41;69.69;96968.69;10503865;27;20030;-50
2023/06/16 08:37:43;;;;;;;17.73;8.60;;;;;;;24.48;70.60;96964.63;10507486;27;20036;-51
2023/06/16 08:42:46;;;;;;;9.50;7.57;;;;;;;24.68;68.89;96957.94;10497022;27;20391;-50
2023/06/16 08:47:45;;;;;;;10.88;7.68;;;;;;;24.64;68.91;96937.03;10519893;27;20519;-47
2023/06/16 08:52:46;;;;;;;10.40;7.10;;;;;;;24.79;66.57;96961.63;10511288;27;20118;-48
2023/06/16 08:57:49;;;;;;;10.45;7.00;;;;;;;24.65;66.33;96959.94;10491531;27;20590;-50
2023/06/16 09:02:53;;;;;;;9.90;6.60;;;;;;;24.97;67.60;96943.59;10490927;27;20467;-51
2023/06/16 09:07:52;;;;;;;12.00;7.57;;;;;;;25.24;67.41;96946.00;10489814;27;20141;-48
2023/06/16 09:12:52;;;;;;;11.43;7.40;;;;;;;25.46;64.18;96946.13;10488750;27;20027;-51
2023/06/16 09:17:52;;;;;;;10.52;6.78;;;;;;;25.47;61.91;96944.31;10514378;27;20193;-48
2023/06/16 09:22:59;;;;;;;10.70;7.20;;;;;;;25.78;62.65;96939.41;10532437;27;20520;-49
2023/06/16 09:28:01;;;;;;;8.73;6.47;;;;;;;26.30;59.82;96930.97;10532182;27;20508;-49
2023/06/16 09:33:01;;;;;;;8.13;6.18;;;;;;;26.33;57.80;96935.19;10521843;27;20559;-49
2023/06/16 09:38:03;;;;;;;9.15;7.10;;;;;;;26.29;57.01;96926.59;10528643;27;20125;-49
2023/06/16 09:43:07;;;;;;;10.55;7.47;;;;;;;26.37;56.93;96910.06;10532937;27;20493;-48
2023/06/16 09:48:08;;;;;;;8.57;7.03;;;;;;;26.60;55.48;96923.34;10520199;27;20048;-52
2023/06/16 09:53:10;;;;;;;8.68;6.90;;;;;;;26.60;53.80;96926.84;10495574;27;20043;-51
2023/06/16 09:58:09;;;;;;;9.80;7.15;;;;;;;26.64;53.55;96922.13;10532286;27;20122;-48
2023/06/16 10:03:11;;;;;;;11.18;7.68;;;;;;;26.61;53.64;96925.06;10518248;27;20043;-52
2023/06/16 10:08:12;;;;;;;9.75;7.40;;;;;;;26.70;52.91;96925.16;10523492;27;20046;-48
2023/06/16 10:13:13;;;;;;;8.27;6.43;;;;;;;26.34;52.70;96889.00;10489270;27;20059;-49
2023/06/16 10:18:16;;;;;;;7.22;6.53;;;;;;;26.32;53.42;96898.91;10503192;27;20137;-47
2023/06/16 10:23:15;;;;;;;8.07;6.05;;;;;;;26.84;54.92;96912.56;10521962;27;20155;-48
2023/06/16 10:28:14;;;;;;;6.68;5.60;;;;;;;26.90;51.42;96902.28;10507819;27;20119;-47
2023/06/16 10:33:22;;;;;;;6.45;5.07;;;;;;;26.83;52.96;96905.53;10511733;27;20051;-48
2023/06/16 10:38:33;;;;;;;8.07;5.95;;;;;;;26.62;54.03;96889.47;10527864;27;20154;-51
2023/06/16 10:43:32;;;;;;;6.80;5.40;;;;;;;26.68;53.10;96886.34;10530224;27;20119;-48
2023/06/16 10:48:57;;;;;;;6.97;5.40;;;;;;;27.03;52.05;96891.50;10514891;27;20114;-47
2023/06/16 10:53:56;;;;;;;5.40;4.85;;;;;;;26.98;52.80;96883.88;10484980;27;20101;-51
2023/06/16 10:58:58;;;;;;;4.95;4.40;;;;;;;26.63;53.62;96883.16;10538534;27;20114;-52
2023/06/16 11:04:03;;;;;;;6.82;4.53;;;;;;;26.17;56.00;96872.53;10496645;27;20621;-52
2023/06/16 11:09:05;;;;;;;8.38;4.50;;;;;;;25.89;57.49;96875.63;10499800;27;20070;-49
2023/06/16 11:14:04;;;;;;;5.70;4.57;;;;;;;26.34;56.31;96862.41;10537230;27;20479;-51
2023/06/16 11:19:03;;;;;;;7.63;4.55;;;;;;;26.95;55.73;96860.16;10497522;27;20570;-48
2023/06/16 11:24:12;;;;;;;6.07;4.43;;;;;;;26.95;54.79;96822.88;10495349;27;20111;-48
2023/06/16 11:29:11;;;;;;;5.32;4.25;;;;;;;26.98;53.69;96843.09;10519265;27;20073;-52
2023/06/16 11:34:10;;;;;;;5.20;4.30;;;;;;;27.05;53.19;96832.78;10538093;27;20031;-52
2023/06/16 11:39:11;;;;;;;5.90;4.53;;;;;;;26.88;54.11;96831.50;10538800;27;20062;-50
2023/06/16 11:44:13;;;;;;;6.05;4.88;;;;;;;26.97;55.01;96818.28;10518247;27;20054;-52
2023/06/16 11:49:12;;;;;;;6.75;4.80;;;;;;;27.04;54.73;96812.44;10512770;27;20138;-50
2023/06/16 11:54:11;;;;;;;4.97;4.45;;;;;;;26.72;54.24;96728.06;10492981;27;20027;-52
2023/06/16 11:59:13;;;;;;;6.43;4.63;;;;;;;27.41;55.00;96800.41;10493722;27;20565;-50
2023/06/16 12:04:12;;;;;;;8.07;4.75;;;;;;;27.23;53.00;96771.81;10493844;27;20119;-50
2023/06/16 12:09:13;;;;;;;7.45;4.40;;;;;;;26.97;54.14;96796.97;10495474;27;20055;-50
2023/06/16 12:14:20;;;;;;;7.05;4.80;;;;;;;27.02;53.30;96787.75;10493398;27;20055;-50
2023/06/16 12:19:22;;;;;;;5.97;5.07;;;;;;;26.77;55.64;96795.09;10493166;27;20055;-48
2023/06/16 12:24:21;;;;;;;6.40;4.95;;;;;;;26.75;56.94;96794.38;10493391;27;20110;-52
2023/06/16 12:29:25;;;;;;;6.25;4.88;;;;;;;26.92;54.46;96793.84;10492759;27;20482;-52
2023/06/16 12:34:30;;;;;;;8.30;5.63;;;;;;;26.42;58.53;96781.97;10492509;27;20078;-53
2023/06/16 12:39:29;;;;;;;6.10;5.50;;;;;;;26.44;58.84;96767.59;10489896;27;20112;-52
2023/06/16 12:44:49;;;;;;;6.80;5.20;;;;;;;26.62;58.00;96775.06;10492437;27;20126;-51
2023/06/16 12:55:43;;;;;;;8.45;4.45;;;;;;;27.18;54.68;96764.19;10555699;27;20412;-52
2023/06/16 13:00:42;;;;;;;9.30;5.00;;;;;;;27.25;54.58;96756.53;10516714;27;20173;-51
2023/06/16 13:05:41;;;;;;;8.98;5.47;;;;;;;27.19;54.99;96753.44;10491249;27;20162;-51
2023/06/16 13:10:40;;;;;;;20.23;14.27;;;;;;;27.28;55.64;96748.28;10491390;27;20031;-49
2023/06/16 13:15:39;;;;;;;6.68;5.57;;;;;;;27.09;56.69;96749.00;10488741;27;20434;-49
2023/06/16 13:20:38;;;;;;;6.30;5.30;;;;;;;26.87;55.81;96747.28;10488696;27;20036;-54
2023/06/16 13:25:37;;;;;;;6.82;5.22;;;;;;;26.87;56.65;96756.13;10490331;27;20055;-52
2023/06/16 13:30:36;;;;;;;9.23;6.68;;;;;;;26.78;56.83;96770.16;10489764;27;20130;-53
2023/06/16 13:35:35;;;;;;;8.90;6.38;;;;;;;26.74;58.00;96772.22;10490531;27;20428;-51
2023/06/16 13:40:34;;;;;;;10.20;6.47;;;;;;;26.44;56.70;96740.13;10490258;27;20467;-48
2023/06/16 13:45:33;;;;;;;9.13;6.55;;;;;;;26.53;56.52;96756.22;10490429;27;20219;-49
2023/06/16 13:50:32;;;;;;;9.38;7.05;;;;;;;26.56;58.40;96758.63;10485897;28;20075;-50
2023/06/16 13:55:31;;;;;;;9.82;6.32;;;;;;;26.12;58.73;96748.88;10487392;28;20506;-49
2023/06/16 14:00:31;;;;;;;10.48;6.90;;;;;;;25.92;61.94;96745.97;10491436;27;20037;-48
2023/06/16 14:05:30;;;;;;;8.98;6.80;;;;;;;25.43;65.63;96738.31;10489274;27;20074;-50
2023/06/16 14:10:29;;;;;;;7.53;6.72;;;;;;;25.43;66.45;96733.00;10487998;27;20043;-50
2023/06/16 14:15:28;;;;;;;8.82;6.63;;;;;;;25.61;66.95;96742.25;10519112;27;20126;-49
2023/06/16 14:20:27;;;;;;;10.73;6.40;;;;;;;25.37;65.02;96738.81;10530379;27;20562;-51
2023/06/16 14:25:26;;;;;;;9.98;7.00;;;;;;;25.23;64.23;96743.38;10530714;27;20537;-48
2023/06/16 14:30:25;;;;;;;8.65;6.10;;;;;;;24.83;65.54;96772.06;10533517;27;20469;-51
2023/06/16 14:35:24;;;;;;;9.65;6.25;;;;;;;24.18;69.10;96792.66;10532021;27;20118;-49
2023/06/16 14:40:23;;;;;;;8.82;6.78;;;;;;;23.23;74.01;96785.94;10520155;27;20050;-48
2023/06/16 14:45:22;;;;;;;9.60;7.53;;;;;;;23.42;74.98;96788.22;10533829;27;20122;-49
2023/06/16 14:50:22;;;;;;;13.07;7.55;;;;;;;23.56;75.13;96774.91;10502545;27;20150;-50
2023/06/16 14:55:21;;;;;;;9.95;7.65;;;;;;;23.42;75.65;96791.69;10506576;27;20130;-50
2023/06/16 15:00:20;;;;;;;7.03;5.55;;;;;;;23.27;74.24;96802.47;10520848;27;20035;-52
2023/06/16 15:05:19;;;;;;;8.77;5.50;;;;;;;22.83;74.63;96816.84;10528198;27;20956;-48
2023/06/16 15:10:18;;;;;;;7.63;4.70;;;;;;;22.20;75.70;96810.28;10492673;27;20142;-48
2023/06/16 15:15:17;;;;;;;7.43;3.90;;;;;;;22.29;73.45;96814.97;10491175;27;20035;-48
2023/06/16 15:20:16;;;;;;;7.50;4.72;;;;;;;22.10;74.17;96833.78;10523268;27;20031;-51
2023/06/16 15:25:17;;;;;;;8.70;4.88;;;;;;;21.66;74.12;96795.06;10490954;27;20058;-51
2023/06/16 15:30:16;;;;;;;9.40;5.65;;;;;;;21.81;74.80;96814.44;10490726;27;20114;-51
2023/06/16 15:35:15;;;;;;;10.10;5.45;;;;;;;21.83;74.96;96828.38;10491516;27;20146;-48
2023/06/16 15:40:14;;;;;;;11.50;6.88;;;;;;;21.95;75.05;96823.19;10491826;27;20111;-51
2023/06/16 15:45:13;;;;;;;9.88;6.18;;;;;;;21.81;75.57;96836.41;10531217;27;20107;-51
2023/06/16 15:50:13;;;;;;;9.10;6.07;;;;;;;21.73;75.60;96851.84;10500374;27;20158;-50
2023/06/16 15:55:12;;;;;;;11.00;6.57;;;;;;;21.41;80.22;96867.84;10488135;27;20114;-52
2023/06/16 16:00:12;;;;;;;9.07;6.22;;;;;;;21.13;80.67;96882.59;10519092;27;20409;-51
2023/06/16 16:05:11;;;;;;;9.90;5.43;;;;;;;20.55;80.39;96880.59;10489453;27;20059;-51
2023/06/16 16:10:11;;;;;;;10.68;5.80;;;;;;;20.37;82.65;96887.69;10489834;27;20065;-49
2023/06/16 16:15:10;;;;;;;7.25;4.95;;;;;;;20.08;85.25;96878.72;10487766;27;20118;-52
2023/06/16 16:20:09;;;;;;;9.38;5.85;;;;;;;20.34;85.52;96905.47;10490194;27;20122;-50
2023/06/16 16:25:08;;;;;;;8.00;5.80;;;;;;;20.55;85.84;96917.50;10488577;27;20294;-50
2023/06/16 16:30:09;;;;;;;10.10;6.50;;;;;;;20.36;87.60;96922.03;10488065;27;20031;-49
2023/06/16 16:35:08;;;;;;;9.07;5.85;;;;;;;20.29;88.86;96924.16;10488592;27;20059;-51
2023/06/16 16:40:08;;;;;;;7.60;5.28;;;;;;;20.34;88.20;96927.38;10487901;27;20028;-49
2023/06/16 16:45:07;;;;;;;14.02;7.22;;;;;;;20.23;89.01;96935.00;10503201;27;20130;-50
2023/06/16 16:50:06;;;;;;;9.07;6.53;;;;;;;20.27;88.33;96934.75;10529063;27;20128;-52
2023/06/16 16:55:06;;;;;;;9.00;5.95;;;;;;;20.37;88.07;96931.63;10526887;27;20115;-52
2023/06/16 17:00:05;;;;;;;10.90;5.88;;;;;;;20.45;87.37;96935.59;10519927;27;20110;-52
2023/06/16 17:05:05;;;;;;;7.88;5.50;;;;;;;20.45;86.86;96925.06;10524658;27;20760;-51
2023/06/16 17:10:05;;;;;;;11.38;6.00;;;;;;;20.42;86.97;96919.09;10513942;27;20464;-52
2023/06/16 17:15:04;;;;;;;8.98;7.20;;;;;;;20.26;87.18;96919.91;10484211;27;20128;-51
2023/06/16 17:20:04;;;;;;;7.85;6.00;;;;;;;20.21;87.26;96921.94;10486046;27;20095;-50
2023/06/16 17:25:03;;;;;;;7.95;6.20;;;;;;;20.29;87.74;96950.50;10486367;27;20060;-52
2023/06/16 17:30:02;;;;;;;7.75;5.00;;;;;;;20.11;88.29;96944.41;10485722;27;20481;-52
2023/06/16 17:35:01;;;;;;;8.80;4.90;;;;;;;19.84;88.85;96930.91;10501211;27;20486;-52
2023/06/16 17:40:00;;;;;;;6.10;4.32;;;;;;;19.97;89.14;96955.66;10486165;27;20438;-51
2023/06/16 17:44:59;;;;;;;5.45;4.40;;;;;;;19.97;88.78;96946.91;10525738;27;20080;-49
2023/06/16 17:49:59;;;;;;;5.55;4.40;;;;;;;19.93;89.14;96948.84;10499801;27;20035;-51
2023/06/16 17:54:58;;;;;;;6.95;4.25;;;;;;;19.95;89.08;96941.69;10495900;27;20131;-52
2023/06/16 17:59:57;;;;;;;7.13;4.40;;;;;;;19.86;89.94;96936.91;10519393;27;20143;-52
2023/06/16 18:04:58;;;;;;;6.00;4.25;;;;;;;19.73;90.90;96947.22;10484600;27;20138;-51
2023/06/16 18:09:57;;;;;;;6.03;4.45;;;;;;;19.66;91.49;96930.88;10486437;27;20058;-52
2023/06/16 18:14:56;;;;;;;9.73;4.93;;;;;;;19.52;93.18;96958.81;10483858;27;20110;-49
2023/06/16 18:19:55;;;;;;;6.28;4.80;;;;;;;19.45;93.35;96956.47;10465760;27;20043;-51
2023/06/16 18:24:54;;;;;;;8.93;6.25;;;;;;;19.32;94.87;96967.66;10491450;27;20031;-50
2023/06/16 18:29:53;;;;;;;6.80;5.35;;;;;;;19.06;96.16;96958.41;10524974;27;20145;-51
2023/06/16 18:34:52;;;;;;;8.27;5.18;;;;;;;19.01;96.58;96975.25;10481845;27;20051;-50
2023/06/16 18:39:51;;;;;;;8.23;5.07;;;;;;;18.85;97.46;96984.78;10483178;27;20122;-49
2023/06/16 18:44:50;;;;;;;7.15;4.88;;;;;;;18.85;97.56;96995.28;10482263;27;20031;-51
2023/06/16 18:49:50;;;;;;;7.35;4.90;;;;;;;18.87;97.60;96993.44;10482200;27;20130;-52
2023/06/16 18:54:50;;;;;;;4.85;3.33;;;;;;;18.76;97.17;97009.75;10485994;27;20059;-52
2023/06/16 18:59:49;;;;;;;6.13;3.80;;;;;;;18.67;97.58;97006.66;10488521;27;20067;-51
2023/06/16 19:04:48;;;;;;;6.35;3.90;;;;;;;18.70;97.63;97009.16;10488686;27;20090;-51
2023/06/16 19:09:47;;;;;;;3.35;2.95;;;;;;;18.73;96.79;97014.25;10492563;27;20051;-52
2023/06/16 19:14:46;;;;;;;4.40;2.60;;;;;;;18.54;96.16;97007.19;10486534;27;20729;-49
2023/06/16 19:19:45;;;;;;;6.63;3.30;;;;;;;18.47;95.81;97005.75;10494261;27;20031;-51
2023/06/16 19:24:44;;;;;;;4.38;3.10;;;;;;;18.26;96.22;96996.19;10493791;27;20047;-51
2023/06/16 19:29:43;;;;;;;4.90;3.00;;;;;;;18.36;95.78;97018.50;10492975;27;20110;-52
2023/06/16 19:34:42;;;;;;;4.30;2.90;;;;;;;18.30;95.59;97024.03;10495048;27;20031;-52
2023/06/16 19:39:41;;;;;;;4.15;2.85;;;;;;;18.32;95.46;97022.22;10493857;27;20039;-49
2023/06/16 19:44:40;;;;;;;7.78;3.60;;;;;;;18.44;95.29;97028.69;10494842;27;20070;-49
2023/06/16 19:49:39;;;;;;;5.07;2.67;;;;;;;18.50;93.88;97021.41;10516236;27;20126;-51
2023/06/16 19:54:38;;;;;;;5.05;3.30;;;;;;;18.42;94.57;97026.13;10494960;27;20058;-51
2023/06/16 19:59:37;;;;;;;4.88;2.70;;;;;;;18.43;94.20;97016.47;10490889;27;20036;-51
2023/06/16 20:04:40;;;;;;;4.85;2.90;;;;;;;18.39;94.39;97018.38;10490111;27;20134;-53
2023/06/16 20:09:39;;;;;;;4.32;2.88;;;;;;;18.29;94.35;97019.69;10489993;27;20493;-52
2023/06/16 20:14:38;;;;;;;5.80;3.35;;;;;;;18.34;94.59;97026.47;10491135;27;20554;-52
2023/06/16 20:19:38;;;;;;;5.93;2.92;;;;;;;18.26;94.13;97028.56;10488594;27;20684;-51
2023/06/16 20:24:39;;;;;;;4.78;2.97;;;;;;;18.24;93.94;97034.81;10489855;27;20138;-51
2023/06/16 20:29:38;;;;;;;4.22;2.90;;;;;;;18.04;93.41;96978.75;10489329;27;20055;-49
2023/06/16 20:34:37;;;;;;;4.70;2.80;;;;;;;18.23;93.34;97012.09;10488998;27;20523;-49
2023/06/16 20:39:36;;;;;;;6.20;2.90;;;;;;;18.28;93.21;97020.63;10488533;27;20123;-52
2023/06/16 20:44:36;;;;;;;3.22;2.58;;;;;;;18.39;93.12;97021.84;10489263;27;20110;-50
2023/06/16 20:49:40;;;;;;;3.40;2.70;;;;;;;18.30;93.24;97008.28;10488019;27;20110;-52
2023/06/16 20:54:39;;;;;;;3.97;2.55;;;;;;;18.44;92.47;97021.66;10488536;27;20142;-50
2023/06/16 20:59:38;;;;;;;4.07;2.65;;;;;;;18.55;92.47;97029.03;10490087;27;20122;-51
2023/06/16 21:04:37;;;;;;;10.27;4.97;;;;;;;18.53;91.77;97026.50;10494937;27;20479;-50
2023/06/16 21:09:36;;;;;;;6.32;3.88;;;;;;;18.36;92.45;97023.75;10525177;27;20118;-52
2023/06/16 21:14:36;;;;;;;4.05;2.83;;;;;;;18.30;93.20;97030.13;10487834;27;20118;-50
2023/06/16 21:19:35;;;;;;;3.63;2.75;;;;;;;18.35;92.91;97027.31;10486581;27;20110;-51
2023/06/16 21:24:34;;;;;;;3.50;2.63;;;;;;;18.18;93.54;97028.06;10487876;27;20119;-49
2023/06/16 21:29:33;;;;;;;5.50;2.50;;;;;;;17.24;95.81;96916.50;10486753;27;20118;-52
2023/06/16 21:34:32;;;;;;;4.70;2.85;;;;;;;17.92;96.52;97026.53;10486759;27;20463;-51
2023/06/16 21:39:32;;;;;;;5.07;2.80;;;;;;;17.86;97.05;97003.16;10486034;27;20509;-51
2023/06/16 21:44:30;;;;;;;3.58;2.75;;;;;;;17.91;97.82;97027.44;10487239;27;20123;-51
2023/06/16 21:49:29;;;;;;;8.70;3.05;;;;;;;17.92;98.48;97023.91;10487100;27;20113;-51
2023/06/16 21:54:28;;;;;;;4.43;2.80;;;;;;;17.89;97.94;97003.03;10487798;27;20114;-51
2023/06/16 21:59:27;;;;;;;4.35;3.13;;;;;;;18.14;97.52;97019.44;10486335;27;20110;-52
2023/06/16 22:04:26;;;;;;;4.65;2.80;;;;;;;18.30;96.94;97010.91;10486486;27;20126;-49
2023/06/16 22:09:26;;;;;;;6.85;3.25;;;;;;;18.39;96.98;97002.63;10486537;27;20035;-51
2023/06/16 22:14:25;;;;;;;3.63;2.53;;;;;;;18.39;95.48;97007.88;10483375;27;20146;-48
2023/06/16 22:19:24;;;;;;;5.15;2.80;;;;;;;18.16;96.36;97004.47;10493495;27;20110;-50
2023/06/16 22:24:23;;;;;;;5.13;2.60;;;;;;;18.08;96.68;97001.34;10509022;28;20075;-49
2023/06/16 22:29:24;;;;;;;4.15;2.25;;;;;;;18.03;97.21;96997.19;10528721;28;20059;-49
2023/06/16 22:34:23;;;;;;;7.45;2.60;;;;;;;17.87;97.63;96981.25;10499751;28;20067;-49
2023/06/16 22:39:22;;;;;;;4.97;2.50;;;;;;;18.14;97.76;96985.31;10469516;28;20039;-50
2023/06/16 22:44:22;;;;;;;3.47;2.70;;;;;;;18.02;97.08;96941.22;10496124;28;20509;-51
2023/06/16 22:49:23;;;;;;;13.02;3.25;;;;;;;18.36;97.28;96990.47;10509284;28;20055;-52
2023/06/16 22:54:23;;;;;;;6.95;3.33;;;;;;;18.39;97.49;96985.09;10494071;27;20521;-51
2023/06/16 22:59:23;;;;;;;7.70;2.95;;;;;;;18.39;97.36;96977.19;10495012;27;20069;-51
2023/06/16 23:04:22;;;;;;;4.30;2.40;;;;;;;18.43;97.68;96967.41;10494652;27;20090;-50